Olympia, WA

7:25 AM PST on December 26, 2014 (GMT -0800)
Olympia | Change Station
CLOSE
Current Station
Airport
Location: Olympia,
Elevation: 200 ft
Nearby Weather Stations

Elev 200 ft 46.97 °N, 122.90 °W | Updated 31 minutes ago

Overcast
Overcast
38 °F
Feels Like 38 °F
N
0
Wind Variable Wind from North

Today
High -- | Low -- °F
--% Chance of Precip.
Yesterday
High -- | Low -- °F
Precip. -- in
7:56 AM 4:28 PM
Waxing Crescent, 26% visible
Pressure 30.35 in
Visibility 3.0 miles
Clouds Overcast 200 ft
Dew Point 36 °F
Humidity 93%
Rainfall 0.00 in
Snow Depth Not available.
UV 0 out of 12
Pollen 1.30 out of 12
Air Quality Not available.
Flu Activity Not available.
METAR KOLM 261454Z AUTO 00000KT 3SM BR OVC002 03/02 A3034 RMK AO2 SLP276 T00330022 51003 $

More Conditions Fewer Conditions

Pressure 30.35 in
Visibility 3.0 miles
Clouds Overcast 200 ft
Dew Point 36 °F
Humidity 93%
Rainfall 0.00 in
Snow Depth Not available.
UV 0 out of 12
Pollen 1.30 out of 12
Air Quality Not available.
Flu Activity Not available.
METAR KOLM 261454Z AUTO 00000KT 3SM BR OVC002 03/02 A3034 RMK AO2 SLP276 T00330022 51003 $

More Conditions Fewer Conditions

10-Day Weather Forecast

Almanac

Astronomy

Dec. 26, 2014 Rise Set
Actual Time
Civil Twilight
Nautical Twilight
Astronomical Twilight
Moon
Length of Visible Light
Length of Day
Tomorrow will be .
, % of the Moon is Illuminated

Today's Extremes

State Highs State Lows

Community

WunderPhotos

Upload Photos

1,780,609 photos uploaded!

WunderBlogs® & News

Nearby

Air Quality

  Air Quality AQ Index Pollutant
Not available.

Snow Depth

Station Depth Elevation

Earthquake Activity

City Distance Mag. Time & Date
Minimum magnitude displayed is 2.5.

Coastal Water Temperatures

Place Temperature

Nearby Weather Stations